createdAt,value
2023-03-24T00:01:27.075Z,93670.22
2023-03-24T00:03:55.080Z,93681.41
2023-03-24T00:06:23.554Z,93671.66
2023-03-24T00:08:51.615Z,93670.44
2023-03-24T00:11:23.467Z,93674.28
2023-03-24T00:13:51.317Z,93671.44
2023-03-24T00:16:20.145Z,93665.56
2023-03-24T00:18:53.968Z,93667.59
2023-03-24T00:21:26.137Z,93668.44
2023-03-24T00:23:56.176Z,93677.56
2023-03-24T00:26:25.760Z,93655.25
2023-03-24T00:28:55.413Z,93671.66
2023-03-24T00:31:24.861Z,93666.00
2023-03-24T00:33:55.431Z,93656.06
2023-03-24T00:36:26.006Z,93672.28
2023-03-24T00:38:56.951Z,93662.97
2023-03-24T00:41:27.322Z,93675.94
2023-03-24T00:44:00.646Z,93673.69
2023-03-24T00:46:29.453Z,93661.72
2023-03-24T00:49:07.566Z,93656.66
2023-03-24T00:51:39.325Z,93662.31
2023-03-24T00:54:09.560Z,93656.66
2023-03-24T00:56:40.964Z,93657.09
2023-03-24T00:59:10.977Z,93659.72
2023-03-24T01:01:41.368Z,93659.09
2023-03-24T01:04:10.748Z,93650.22
2023-03-24T01:06:38.845Z,93647.34
2023-03-24T01:09:07.718Z,93649.59
2023-03-24T01:11:40.293Z,93648.78
2023-03-24T01:14:09.945Z,93654.47
2023-03-24T01:16:38.179Z,93644.13
2023-03-24T01:19:07.409Z,93644.09
2023-03-24T01:21:37.117Z,93646.13
2023-03-24T01:24:05.661Z,93644.53
2023-03-24T01:26:33.648Z,93641.28
2023-03-24T01:29:01.878Z,93642.50
2023-03-24T01:31:29.764Z,93640.69
2023-03-24T01:33:57.663Z,93628.94
2023-03-24T01:36:25.718Z,93642.09
2023-03-24T01:38:53.576Z,93645.34
2023-03-24T01:41:21.690Z,93642.88
2023-03-24T01:43:50.549Z,93643.28
2023-03-24T01:46:20.706Z,93642.28
2023-03-24T01:49:00.129Z,93633.75
2023-03-24T01:51:36.099Z,93628.66
2023-03-24T01:54:14.941Z,93633.31
2023-03-24T01:56:53.773Z,93627.91
2023-03-24T01:59:27.509Z,93625.66
2023-03-24T02:02:14.015Z,93635.59
2023-03-24T02:04:54.354Z,93635.59
2023-03-24T02:07:42.224Z,93637.41
2023-03-24T02:10:14.279Z,93651.19
2023-03-24T02:12:43.829Z,93655.47
2023-03-24T02:15:14.955Z,93649.16
2023-03-24T02:18:19.337Z,93652.44
2023-03-24T02:21:14.919Z,93654.44
2023-03-24T02:24:24.537Z,93649.34
2023-03-24T02:27:07.552Z,93650.78
2023-03-24T02:29:57.074Z,93651.63
2023-03-24T02:32:31.123Z,93654.22
2023-03-24T02:35:26.800Z,93656.22
2023-03-24T02:38:13.533Z,93662.09
2023-03-24T02:40:44.785Z,93654.38
2023-03-24T02:43:36.112Z,93664.91
2023-03-24T02:46:22.993Z,93661.47
2023-03-24T02:48:51.852Z,93650.31
2023-03-24T02:51:30.976Z,93642.84
2023-03-24T02:56:54.372Z,93648.97
2023-03-24T02:59:49.654Z,93642.66
2023-03-24T03:03:06.075Z,93624.66
2023-03-24T03:05:33.885Z,93625.63
2023-03-24T03:08:04.962Z,93630.47
2023-03-24T03:10:38.646Z,93634.78
2023-03-24T03:13:13.245Z,93635.59
2023-03-24T03:15:48.665Z,93625.25
2023-03-24T03:18:32.375Z,93633.53
2023-03-24T03:21:09.252Z,93629.47
2023-03-24T03:23:51.717Z,93630.28
2023-03-24T03:26:24.319Z,93629.88
2023-03-24T03:28:58.297Z,93631.06
2023-03-24T03:31:35.059Z,93622.91
2023-03-24T03:34:31.367Z,93617.88
2023-03-24T03:37:23.358Z,93619.44
2023-03-24T03:40:01.543Z,93609.44
2023-03-24T03:42:31.737Z,93605.56
2023-03-24T03:45:05.674Z,93605.78
2023-03-24T03:47:34.579Z,93613.28
2023-03-24T03:50:06.294Z,93613.47
2023-03-24T03:52:37.680Z,93609.44
2023-03-24T03:55:07.224Z,93609.06
2023-03-24T03:57:36.603Z,93609.28
2023-03-24T04:00:24.134Z,93611.28
2023-03-24T04:03:37.323Z,93613.84
2023-03-24T04:06:14.758Z,93615.47
2023-03-24T04:09:01.799Z,93622.53
2023-03-24T04:12:11.854Z,93618.09
2023-03-24T04:15:09.723Z,93622.19
2023-03-24T04:18:25.220Z,93626.41
2023-03-24T04:21:33.866Z,93627.00
2023-03-24T04:24:34.950Z,93626.34
2023-03-24T04:27:22.285Z,93633.06
2023-03-24T04:30:10.348Z,93622.81
2023-03-24T04:33:18.282Z,93636.81
2023-03-24T04:35:58.222Z,93629.47
2023-03-24T04:38:38.549Z,93625.22
2023-03-24T04:41:43.429Z,93635.16
2023-03-24T04:44:25.589Z,93629.50
2023-03-24T04:47:27.250Z,93635.72
2023-03-24T04:50:11.653Z,93631.25
2023-03-24T04:52:42.284Z,93640.38
2023-03-24T04:55:33.247Z,93638.66
2023-03-24T04:58:01.993Z,93644.06
2023-03-24T05:00:31.452Z,93627.81
2023-03-24T05:02:59.454Z,93642.00
2023-03-24T05:05:28.821Z,93641.50
2023-03-24T05:08:00.460Z,93643.16
2023-03-24T05:10:29.382Z,93644.63
2023-03-24T05:12:58.541Z,93646.69
2023-03-24T05:15:35.689Z,93650.19
2023-03-24T05:18:25.135Z,93653.28
2023-03-24T05:20:54.121Z,93659.19
2023-03-24T05:23:23.319Z,93659.16
2023-03-24T05:25:51.926Z,93667.72
2023-03-24T05:28:23.735Z,93667.72
2023-03-24T05:30:55.789Z,93671.69
2023-03-24T05:33:38.930Z,93676.03
2023-03-24T05:36:07.410Z,93669.75
2023-03-24T05:38:35.993Z,93675.38
2023-03-24T05:41:04.372Z,93674.13
2023-03-24T05:43:36.784Z,93671.06
2023-03-24T05:46:13.931Z,93673.91
2023-03-24T05:48:42.407Z,93668.44
2023-03-24T05:51:21.461Z,93667.38
2023-03-24T05:53:58.825Z,93675.03
2023-03-24T05:56:33.271Z,93677.53
2023-03-24T05:59:23.056Z,93682.66
2023-03-24T06:01:57.057Z,93667.72
2023-03-24T06:04:57.794Z,93670.94
2023-03-24T06:07:30.921Z,93669.03
2023-03-24T06:10:03.716Z,93669.28
2023-03-24T06:12:42.052Z,93663.81
2023-03-24T06:15:10.803Z,93655.66
2023-03-24T06:17:38.984Z,93659.97
2023-03-24T06:20:18.919Z,93672.06
2023-03-24T06:23:07.039Z,93673.03
2023-03-24T06:26:01.952Z,93677.31
2023-03-24T06:28:34.753Z,93676.25
2023-03-24T06:31:18.742Z,93674.19
2023-03-24T06:33:47.845Z,93670.13
2023-03-24T06:36:16.547Z,93678.88
2023-03-24T06:38:45.759Z,93676.47
2023-03-24T06:41:17.970Z,93671.22
2023-03-24T06:43:47.504Z,93668.94
2023-03-24T06:46:15.712Z,93662.53
2023-03-24T06:48:47.404Z,93672.31
2023-03-24T06:51:15.581Z,93673.84
2023-03-24T06:53:45.938Z,93674.31
2023-03-24T06:56:17.847Z,93670.34
2023-03-24T06:58:51.797Z,93672.63
2023-03-24T07:01:27.086Z,93675.56
2023-03-24T07:04:18.584Z,93674.00
2023-03-24T07:06:58.627Z,93667.81
2023-03-24T07:09:34.981Z,93673.06
2023-03-24T07:12:03.850Z,93668.19
2023-03-24T07:14:32.204Z,93667.56
2023-03-24T07:17:02.638Z,93661.66
2023-03-24T07:19:42.559Z,93663.69
2023-03-24T07:22:33.580Z,93643.97
2023-03-24T07:25:20.256Z,93644.25
2023-03-24T07:27:56.670Z,93637.84
2023-03-24T07:30:37.344Z,93635.50
2023-03-24T07:33:12.846Z,93639.38
2023-03-24T07:35:44.360Z,93634.09
2023-03-24T07:38:13.177Z,93636.38
2023-03-24T07:40:41.387Z,93632.84
2023-03-24T07:43:09.435Z,93635.78
2023-03-24T07:46:00.902Z,93625.13
2023-03-24T07:48:30.023Z,93630.88
2023-03-24T07:50:57.991Z,93613.53
2023-03-24T07:53:45.832Z,93615.88
2023-03-24T07:56:17.161Z,93610.25
2023-03-24T07:58:53.109Z,93610.88
2023-03-24T08:01:37.121Z,93598.94
2023-03-24T08:04:12.368Z,93602.13
2023-03-24T08:07:05.511Z,93598.16
2023-03-24T08:09:33.487Z,93604.50
2023-03-24T08:12:09.989Z,93596.69
2023-03-24T08:14:45.900Z,93593.34
2023-03-24T08:17:13.794Z,93598.09
2023-03-24T08:19:56.173Z,93584.97
2023-03-24T08:22:27.963Z,93579.72
2023-03-24T08:32:36.292Z,93559.34
2023-03-24T08:35:05.290Z,93556.75
2023-03-24T08:37:33.293Z,93564.94
2023-03-24T08:40:05.621Z,93551.94
2023-03-24T08:42:33.724Z,93553.88
2023-03-24T08:45:02.201Z,93555.47
2023-03-24T08:47:30.265Z,93535.88
2023-03-24T08:50:01.597Z,93543.97
2023-03-24T08:52:30.008Z,93539.41
2023-03-24T08:54:57.861Z,93533.66
2023-03-24T08:57:26.323Z,93525.31
2023-03-24T08:59:54.782Z,93518.91
2023-03-24T09:02:22.927Z,93519.91
2023-03-24T09:04:54.174Z,93512.44
2023-03-24T09:07:22.538Z,93511.84
2023-03-24T09:09:50.525Z,93513.06
2023-03-24T09:12:18.432Z,93513.63
2023-03-24T09:14:50.660Z,93507.91
2023-03-24T09:17:19.147Z,93507.28
2023-03-24T09:19:47.585Z,93511.72
2023-03-24T09:22:15.788Z,93496.88
2023-03-24T09:24:44.630Z,93505.78
2023-03-24T09:27:12.564Z,93499.56
2023-03-24T09:29:40.844Z,93502.47
2023-03-24T09:32:09.022Z,93491.22
2023-03-24T09:34:38.524Z,93498.34
2023-03-24T09:37:06.386Z,93482.78
2023-03-24T09:39:36.825Z,93484.00
2023-03-24T09:42:07.239Z,93481.13
2023-03-24T09:44:43.600Z,93480.91
2023-03-24T09:47:26.948Z,93472.91
2023-03-24T09:49:58.116Z,93474.09
2023-03-24T09:52:38.377Z,93461.75
2023-03-24T09:55:12.342Z,93464.84
2023-03-24T09:57:43.764Z,93460.81
2023-03-24T10:00:18.317Z,93463.50
2023-03-24T10:02:47.703Z,93452.31
2023-03-24T10:05:32.763Z,93452.91
2023-03-24T10:08:03.776Z,93449.78
2023-03-24T10:10:46.921Z,93444.06
2023-03-24T10:13:27.889Z,93456.19
2023-03-24T10:16:13.400Z,93447.00
2023-03-24T10:19:05.229Z,93445.63
2023-03-24T10:23:39.578Z,93433.59
2023-03-24T10:26:27.207Z,93436.72
2023-03-24T10:29:23.911Z,93429.25
2023-03-24T10:31:59.507Z,93428.69
2023-03-24T10:34:31.057Z,93427.47
2023-03-24T10:37:03.142Z,93424.31
2023-03-24T10:39:44.233Z,93425.63
2023-03-24T10:42:26.718Z,93412.50
2023-03-24T10:44:54.999Z,93414.78
2023-03-24T10:47:27.429Z,93407.00
2023-03-24T10:50:12.704Z,93413.16
2023-03-24T10:52:45.668Z,93413.50
2023-03-24T10:55:19.988Z,93408.25
2023-03-24T10:57:51.340Z,93398.88
2023-03-24T11:00:27.006Z,93398.53
2023-03-24T11:03:01.905Z,93407.97
2023-03-24T11:05:33.623Z,93402.28
2023-03-24T11:08:37.334Z,93404.31
2023-03-24T11:11:15.752Z,93396.81
2023-03-24T11:13:57.196Z,93399.38
2023-03-24T11:16:44.273Z,93391.25
2023-03-24T11:19:23.596Z,93388.44
2023-03-24T11:21:57.584Z,93387.97
2023-03-24T11:24:28.110Z,93386.78
2023-03-24T11:27:00.721Z,93384.28
2023-03-24T11:29:30.883Z,93382.09
2023-03-24T11:32:02.061Z,93384.69
2023-03-24T11:34:39.036Z,93387.94
2023-03-24T11:37:33.624Z,93373.81
2023-03-24T11:40:13.543Z,93376.25
2023-03-24T11:42:45.977Z,93376.44
2023-03-24T11:45:38.213Z,93379.84
2023-03-24T11:48:26.678Z,93373.03
2023-03-24T11:50:57.776Z,93364.75
2023-03-24T11:53:51.842Z,93372.22
2023-03-24T11:56:56.773Z,93366.28
2023-03-24T11:59:24.731Z,93366.97
2023-03-24T12:02:07.898Z,93361.25
2023-03-24T12:04:59.863Z,93359.59
2023-03-24T12:07:43.533Z,93358.69
2023-03-24T12:10:39.336Z,93348.69
2023-03-24T12:13:32.424Z,93337.34
2023-03-24T12:16:24.168Z,93351.41
2023-03-24T12:19:21.920Z,93339.81
2023-03-24T12:22:23.256Z,93342.22
2023-03-24T12:25:17.482Z,93341.56
2023-03-24T12:27:46.299Z,93340.06
2023-03-24T12:30:29.133Z,93339.63
2023-03-24T12:33:29.020Z,93332.16
2023-03-24T12:36:02.353Z,93330.84
2023-03-24T12:39:05.344Z,93331.94
2023-03-24T12:41:33.430Z,93341.13
2023-03-24T12:44:30.104Z,93329.78
2023-03-24T12:47:21.810Z,93333.59
2023-03-24T12:49:57.671Z,93325.56
2023-03-24T12:55:51.988Z,93316.44
2023-03-24T12:58:22.996Z,93318.00
2023-03-24T13:01:13.554Z,93308.88
2023-03-24T13:03:45.759Z,93306.69
2023-03-24T13:06:23.196Z,93305.09
2023-03-24T13:09:32.005Z,93310.59
2023-03-24T13:12:10.755Z,93303.84
2023-03-24T13:15:00.665Z,93302.91
2023-03-24T13:17:35.141Z,93307.03
2023-03-24T13:20:08.413Z,93302.91
2023-03-24T13:22:38.577Z,93296.41
2023-03-24T13:25:31.398Z,93296.53
2023-03-24T13:28:07.444Z,93292.41
2023-03-24T13:30:38.805Z,93295.41
2023-03-24T13:33:19.139Z,93283.59
2023-03-24T13:36:02.023Z,93285.47
2023-03-24T13:38:46.998Z,93278.47
2023-03-24T13:41:22.174Z,93281.00
2023-03-24T13:43:58.320Z,93277.78
2023-03-24T13:46:27.053Z,93275.81
2023-03-24T13:49:01.166Z,93275.91
2023-03-24T13:51:40.533Z,93273.16
2023-03-24T13:54:19.516Z,93273.41
2023-03-24T13:57:05.800Z,93276.13
2023-03-24T14:00:02.527Z,93270.63
2023-03-24T14:02:52.939Z,93264.09
2023-03-24T14:05:26.723Z,93257.72
2023-03-24T14:08:01.353Z,93257.59
2023-03-24T14:10:41.180Z,93266.75
2023-03-24T14:13:12.199Z,93256.59
2023-03-24T14:15:52.497Z,93261.50
2023-03-24T14:18:23.505Z,93257.84
2023-03-24T14:20:57.804Z,93248.47
2023-03-24T14:23:40.587Z,93253.06
2023-03-24T14:26:21.765Z,93248.63
2023-03-24T14:28:54.836Z,93249.25
2023-03-24T14:31:33.769Z,93250.19
2023-03-24T14:34:25.637Z,93241.41
2023-03-24T14:37:04.098Z,93235.22
2023-03-24T14:39:44.946Z,93236.19
2023-03-24T14:42:29.741Z,93206.72
2023-03-24T14:45:07.511Z,93231.69
2023-03-24T14:47:42.857Z,93230.28
2023-03-24T14:50:13.561Z,93238.59
2023-03-24T14:52:45.967Z,93222.81
2023-03-24T14:55:20.128Z,93232.34
2023-03-24T14:57:53.496Z,93233.00
2023-03-24T15:00:42.254Z,93217.84
2023-03-24T15:03:40.403Z,93226.31
2023-03-24T15:06:11.407Z,93228.06
2023-03-24T15:08:39.484Z,93223.25
2023-03-24T15:11:10.604Z,93221.38
2023-03-24T15:13:45.880Z,93227.25
2023-03-24T15:16:14.138Z,93235.38
2023-03-24T15:19:20.251Z,93225.84
2023-03-24T15:21:51.348Z,93218.97
2023-03-24T15:24:22.986Z,93222.78
2023-03-24T15:27:04.750Z,93212.72
2023-03-24T15:29:34.447Z,93225.19
2023-03-24T15:32:02.867Z,93218.63
2023-03-24T15:34:34.324Z,93215.78
2023-03-24T15:37:05.892Z,93221.44
2023-03-24T15:39:39.177Z,93229.94
2023-03-24T15:42:14.740Z,93228.22
2023-03-24T15:44:43.090Z,93224.72
2023-03-24T15:47:22.276Z,93136.31
2023-03-24T15:49:56.550Z,93226.16
2023-03-24T15:52:36.912Z,93234.91
2023-03-24T15:55:29.559Z,93242.63
2023-03-24T15:58:01.950Z,93233.78
2023-03-24T16:00:39.373Z,93237.81
2023-03-24T16:03:08.503Z,93245.59
2023-03-24T16:05:45.898Z,93238.72
2023-03-24T16:08:39.416Z,93247.56
2023-03-24T16:11:13.077Z,93248.66
2023-03-24T16:13:45.186Z,93246.31
2023-03-24T16:16:16.367Z,93247.25
2023-03-24T16:18:47.315Z,93244.91
2023-03-24T16:21:20.492Z,93249.84
2023-03-24T16:23:51.304Z,93255.97
2023-03-24T16:26:24.677Z,93252.09
2023-03-24T16:28:54.011Z,93248.75
2023-03-24T16:31:31.444Z,93261.22
2023-03-24T16:33:59.763Z,93257.34
2023-03-24T16:36:28.642Z,93265.53
2023-03-24T16:38:59.080Z,93250.16
2023-03-24T16:41:28.618Z,93265.81
2023-03-24T16:43:56.931Z,93269.09
2023-03-24T16:46:28.110Z,93266.69
2023-03-24T16:48:56.548Z,93261.88
2023-03-24T16:51:25.061Z,93256.25
2023-03-24T16:53:54.139Z,93263.06
2023-03-24T16:56:23.349Z,93266.13
2023-03-24T16:58:56.721Z,93268.03
2023-03-24T17:01:39.909Z,93271.25
2023-03-24T17:04:22.733Z,93277.25
2023-03-24T17:06:54.684Z,93277.66
2023-03-24T17:09:23.322Z,93276.59
2023-03-24T17:11:57.708Z,93283.13
2023-03-24T17:14:26.355Z,93281.66
2023-03-24T17:16:54.589Z,93282.09
2023-03-24T17:19:25.041Z,93285.13
2023-03-24T17:22:05.122Z,93290.50
2023-03-24T17:24:42.072Z,93290.72
2023-03-24T17:27:18.264Z,93298.53
2023-03-24T17:29:46.853Z,93297.78
2023-03-24T17:32:15.141Z,93303.44
2023-03-24T17:34:45.190Z,93299.97
2023-03-24T17:37:13.750Z,93302.50
2023-03-24T17:39:42.422Z,93306.88
2023-03-24T17:42:10.817Z,93314.75
2023-03-24T17:44:39.377Z,93314.97
2023-03-24T17:47:07.884Z,93310.66
2023-03-24T17:49:37.716Z,93308.44
2023-03-24T17:52:06.435Z,93309.22
2023-03-24T17:54:34.880Z,93308.50
2023-03-24T17:57:03.441Z,93314.38
2023-03-24T17:59:32.010Z,93312.28
2023-03-24T18:02:00.663Z,93316.34
2023-03-24T18:04:29.347Z,93315.84
2023-03-24T18:06:57.679Z,93318.38
2023-03-24T18:09:27.286Z,93317.09
2023-03-24T18:11:55.480Z,93324.13
2023-03-24T18:14:23.386Z,93323.31
2023-03-24T18:16:51.352Z,93329.25
2023-03-24T18:19:19.531Z,93315.38
2023-03-24T18:21:47.630Z,93325.03
2023-03-24T18:24:16.230Z,93319.69
2023-03-24T18:26:44.150Z,93321.31
2023-03-24T18:29:12.603Z,93322.94
2023-03-24T18:31:40.757Z,93328.06
2023-03-24T18:34:08.912Z,93317.06
2023-03-24T18:36:37.056Z,93327.53
2023-03-24T18:39:08.107Z,93331.81
2023-03-24T18:41:39.734Z,93329.38
2023-03-24T18:44:11.458Z,93322.16
2023-03-24T18:46:39.720Z,93328.03
2023-03-24T18:49:08.238Z,93327.25
2023-03-24T18:51:36.389Z,93345.69
2023-03-24T18:54:04.563Z,93337.94
2023-03-24T18:56:32.892Z,93334.47
2023-03-24T18:59:01.102Z,93344.63
2023-03-24T19:01:30.482Z,93344.34
2023-03-24T19:03:58.469Z,93317.56
2023-03-24T19:06:31.486Z,93339.78
2023-03-24T19:09:00.008Z,93342.66
2023-03-24T19:11:28.101Z,93330.63
2023-03-24T19:13:57.221Z,93340.25
2023-03-24T19:16:26.280Z,93355.66
2023-03-24T19:18:58.081Z,93343.63
2023-03-24T19:21:27.758Z,93348.38
2023-03-24T19:23:57.211Z,93345.13
2023-03-24T19:26:26.212Z,93352.03
2023-03-24T19:28:54.326Z,93353.63
2023-03-24T19:31:24.916Z,93342.63
2023-03-24T19:33:53.884Z,93343.34
2023-03-24T19:36:21.672Z,93344.94
2023-03-24T19:38:49.701Z,93338.66
2023-03-24T19:41:17.692Z,93347.75
2023-03-24T19:43:45.984Z,93347.97
2023-03-24T19:46:14.009Z,93353.03
2023-03-24T19:48:41.942Z,93357.00
2023-03-24T19:51:09.873Z,93355.34
2023-03-24T19:53:38.119Z,93345.13
2023-03-24T19:56:06.826Z,93358.78
2023-03-24T19:58:35.636Z,93359.25
2023-03-24T20:01:04.209Z,93347.25
2023-03-24T20:03:32.491Z,93353.56
2023-03-24T20:06:05.381Z,93347.22
2023-03-24T20:08:33.422Z,93348.97
2023-03-24T20:11:03.907Z,93332.88
2023-03-24T20:13:31.954Z,93350.75
2023-03-24T20:15:59.967Z,93352.44
2023-03-24T20:18:28.128Z,93354.06
2023-03-24T20:20:57.241Z,93355.81
2023-03-24T20:23:25.135Z,93355.06
2023-03-24T20:25:53.390Z,93346.47
2023-03-24T20:28:21.526Z,93350.22
2023-03-24T20:30:49.634Z,93334.63
2023-03-24T20:33:17.606Z,93352.47
2023-03-24T20:35:45.985Z,93348.16
2023-03-24T20:38:14.148Z,93350.22
2023-03-24T20:40:42.142Z,93348.56
2023-03-24T20:43:10.188Z,93343.22
2023-03-24T20:45:41.279Z,93339.22
2023-03-24T20:48:09.596Z,93344.22
2023-03-24T20:50:38.442Z,93340.44
2023-03-24T20:53:07.800Z,93337.97
2023-03-24T20:55:36.719Z,93336.38
2023-03-24T20:58:08.618Z,93347.94
2023-03-24T21:00:46.329Z,93338.09
2023-03-24T21:03:15.086Z,93335.69
2023-03-24T21:05:43.684Z,93340.75
2023-03-24T21:08:12.165Z,93341.25
2023-03-24T21:10:40.931Z,93341.72
2023-03-24T21:13:09.330Z,93322.38
2023-03-24T21:15:45.536Z,93345.56
2023-03-24T21:18:14.143Z,93344.50
2023-03-24T21:20:56.428Z,93343.06
2023-03-24T21:23:25.487Z,93341.47
2023-03-24T21:25:53.796Z,93346.63
2023-03-24T21:28:22.576Z,93345.75
2023-03-24T21:30:51.035Z,93347.22
2023-03-24T21:33:19.618Z,93348.25
2023-03-24T21:35:47.916Z,93335.69
2023-03-24T21:38:16.516Z,93335.38
2023-03-24T21:40:44.835Z,93338.53
2023-03-24T21:43:15.081Z,93343.22
2023-03-24T21:45:46.597Z,93348.19
2023-03-24T21:48:16.593Z,93338.97
2023-03-24T21:50:44.785Z,93341.53
2023-03-24T21:53:15.461Z,93343.47
2023-03-24T21:56:04.863Z,93346.22
2023-03-24T21:58:33.860Z,93356.44
2023-03-24T22:01:02.565Z,93348.63
2023-03-24T22:03:34.739Z,93355.53
2023-03-24T22:06:05.698Z,93349.00
2023-03-24T22:08:34.267Z,93353.38
2023-03-24T22:11:04.599Z,93346.69
2023-03-24T22:13:33.650Z,93348.78
2023-03-24T22:16:02.790Z,93352.69
2023-03-24T22:18:32.794Z,93348.44
2023-03-24T22:21:13.115Z,93348.06
2023-03-24T22:23:42.970Z,93344.84
2023-03-24T22:26:17.090Z,93353.94
2023-03-24T22:28:45.621Z,93330.84
2023-03-24T22:31:16.941Z,93350.28
2023-03-24T22:33:45.645Z,93354.81
2023-03-24T22:36:13.610Z,93342.34
2023-03-24T22:38:42.535Z,93348.59
2023-03-24T22:41:13.034Z,93346.66
2023-03-24T22:43:42.068Z,93347.69
2023-03-24T22:46:11.393Z,93347.59
2023-03-24T22:48:39.465Z,93345.78
2023-03-24T22:51:08.992Z,93346.59
2023-03-24T22:53:37.112Z,93342.91
2023-03-24T22:56:06.444Z,93344.28
2023-03-24T22:58:36.009Z,93340.88
2023-03-24T23:01:05.007Z,93346.41
2023-03-24T23:03:33.687Z,93337.09
2023-03-24T23:06:02.796Z,93341.56
2023-03-24T23:08:32.911Z,93344.56
2023-03-24T23:11:01.235Z,93344.56
2023-03-24T23:13:30.957Z,93335.94
2023-03-24T23:15:59.245Z,93337.09
2023-03-24T23:18:27.180Z,93348.97
2023-03-24T23:21:03.504Z,93350.56
2023-03-24T23:23:31.957Z,93354.97
2023-03-24T23:26:00.326Z,93352.91
2023-03-24T23:37:50.717Z,93335.75
2023-03-24T23:40:19.402Z,93337.09
2023-03-24T23:42:48.531Z,93335.75
2023-03-24T23:45:18.269Z,93338.41
2023-03-24T23:47:49.909Z,93328.28
2023-03-24T23:50:19.340Z,93332.41
2023-03-24T23:52:48.119Z,93328.28
2023-03-24T23:55:18.176Z,93325.16
2023-03-24T23:57:46.929Z,93325.50
